createdAt,value
2023-03-05T00:01:23.061Z,8.70
2023-03-05T00:11:30.321Z,14.50
2023-03-05T00:21:40.657Z,12.70
2023-03-05T00:31:44.566Z,10.60
2023-03-05T00:41:48.010Z,13.30
2023-03-05T00:51:52.343Z,9.40
2023-03-05T01:01:56.404Z,13.70
2023-03-05T01:12:00.312Z,13.40
2023-03-05T01:22:03.491Z,13.10
2023-03-05T01:32:06.607Z,17.30
2023-03-05T01:42:10.267Z,13.80
2023-03-05T01:52:20.604Z,15.30
2023-03-05T02:02:26.021Z,17.80
2023-03-05T02:12:29.665Z,22.60
2023-03-05T02:22:32.885Z,21.80
2023-03-05T02:32:35.945Z,21.30
2023-03-05T02:42:39.658Z,25.60
2023-03-05T02:52:43.655Z,27.10
2023-03-05T03:02:50.568Z,21.80
2023-03-05T03:12:53.652Z,22.50
2023-03-05T03:22:56.684Z,22.30
2023-03-05T03:32:59.721Z,26.10
2023-03-05T03:43:02.917Z,22.10
2023-03-05T03:53:06.091Z,27.60
2023-03-05T04:03:09.396Z,26.00
2023-03-05T04:13:12.401Z,23.10
2023-03-05T04:23:16.197Z,26.50
2023-03-05T04:33:20.475Z,24.70
2023-03-05T04:43:23.618Z,26.20
2023-03-05T04:53:26.751Z,25.00
2023-03-05T05:03:30.411Z,27.00
2023-03-05T05:13:34.188Z,28.60
2023-03-05T05:23:37.740Z,33.30
2023-03-05T05:33:41.881Z,26.50
2023-03-05T05:43:45.012Z,25.50
2023-03-05T05:53:48.866Z,33.80
2023-03-05T06:03:52.442Z,29.40
2023-03-05T06:13:56.191Z,22.80
2023-03-05T06:23:59.312Z,25.40
2023-03-05T06:34:02.437Z,22.60
2023-03-05T06:44:05.915Z,19.90
2023-03-05T06:54:13.802Z,23.10
2023-03-05T07:04:17.526Z,26.40
2023-03-05T07:14:20.517Z,27.20
2023-03-05T07:24:29.111Z,24.10
2023-03-05T07:34:32.176Z,18.60
2023-03-05T07:44:36.331Z,16.10
2023-03-05T07:54:39.864Z,13.40
2023-03-05T08:04:43.410Z,19.80
2023-03-05T08:14:48.044Z,16.20
2023-03-05T08:24:52.290Z,14.80
2023-03-05T08:34:59.679Z,12.20
2023-03-05T08:45:03.732Z,15.40
2023-03-05T08:55:07.205Z,13.80
2023-03-05T09:05:10.850Z,15.60
2023-03-05T09:15:13.949Z,12.60
2023-03-05T09:25:18.215Z,16.00
2023-03-05T09:35:21.294Z,14.00
2023-03-05T09:45:41.557Z,12.30
2023-03-05T09:55:51.914Z,15.10
2023-03-05T10:06:15.172Z,14.40
2023-03-05T10:16:36.333Z,16.10
2023-03-05T10:27:08.271Z,16.80
2023-03-05T10:37:30.519Z,19.20
2023-03-05T10:47:49.666Z,12.60
2023-03-05T10:57:52.741Z,14.90
2023-03-05T11:07:56.038Z,13.90
2023-03-05T11:18:25.309Z,14.80
2023-03-05T11:28:37.981Z,12.70
2023-03-05T11:38:51.851Z,10.10
2023-03-05T11:48:56.826Z,10.10
2023-03-05T11:59:11.978Z,13.30
2023-03-05T12:09:34.037Z,15.90
2023-03-05T12:20:07.054Z,14.00
2023-03-05T12:30:29.487Z,24.30
2023-03-05T12:40:35.609Z,20.10
2023-03-05T12:50:38.591Z,16.00
2023-03-05T13:00:53.690Z,12.80
2023-03-05T13:11:04.168Z,10.90
2023-03-05T13:21:18.849Z,11.70
2023-03-05T13:31:23.212Z,11.30
2023-03-05T13:41:28.123Z,11.70
2023-03-05T13:51:46.796Z,13.20
2023-03-05T14:01:50.788Z,16.20
2023-03-05T14:12:03.111Z,16.50
2023-03-05T14:22:06.413Z,16.20
2023-03-05T14:32:25.485Z,12.30
2023-03-05T14:42:33.743Z,15.80
2023-03-05T14:52:39.100Z,10.80
2023-03-05T15:02:42.647Z,9.20
2023-03-05T15:12:46.367Z,11.40
2023-03-05T15:22:49.813Z,10.20
2023-03-05T15:32:55.386Z,17.30
2023-03-05T15:43:01.148Z,18.70
2023-03-05T15:53:04.323Z,21.20
2023-03-05T16:03:07.818Z,24.20
2023-03-05T16:13:15.479Z,29.60
2023-03-05T16:23:18.839Z,41.90
2023-03-05T16:33:22.430Z,40.30
2023-03-05T16:43:25.859Z,38.30
2023-03-05T16:53:28.923Z,32.90
2023-03-05T17:03:32.097Z,33.70
2023-03-05T17:14:00.972Z,34.90
2023-03-05T17:24:04.240Z,50.20
2023-03-05T17:34:07.956Z,30.10
2023-03-05T17:44:12.142Z,16.10
2023-03-05T17:54:15.938Z,23.60
2023-03-05T18:04:19.669Z,20.50
2023-03-05T18:14:22.799Z,30.00
2023-03-05T18:24:25.845Z,29.50
2023-03-05T18:34:29.730Z,23.90
2023-03-05T18:44:32.963Z,11.00
2023-03-05T18:54:35.976Z,11.20
2023-03-05T19:04:39.133Z,14.80
2023-03-05T19:14:42.373Z,15.90
2023-03-05T19:24:45.520Z,18.00
2023-03-05T19:34:48.809Z,17.20
2023-03-05T19:44:51.966Z,18.60
2023-03-05T19:54:55.011Z,18.60
2023-03-05T20:04:59.214Z,24.00
2023-03-05T20:15:03.871Z,19.80
2023-03-05T20:25:07.646Z,21.20
2023-03-05T20:35:15.359Z,25.00
2023-03-05T20:45:18.746Z,22.20
2023-03-05T20:55:23.570Z,23.60
2023-03-05T21:05:31.437Z,29.10
2023-03-05T21:15:34.442Z,26.40
2023-03-05T21:25:37.562Z,26.70
2023-03-05T21:35:41.914Z,27.80
2023-03-05T21:45:49.278Z,31.10
2023-03-05T21:56:02.768Z,27.30
2023-03-05T22:06:14.099Z,40.20
2023-03-05T22:16:23.294Z,42.30
2023-03-05T22:26:34.925Z,37.80
2023-03-05T22:36:38.057Z,43.20
2023-03-05T22:46:41.133Z,42.50
2023-03-05T22:56:44.766Z,47.30
2023-03-05T23:06:48.782Z,46.10
2023-03-05T23:16:51.801Z,43.30
2023-03-05T23:26:54.846Z,42.00
2023-03-05T23:37:00.552Z,38.80
2023-03-05T23:47:03.854Z,38.70
2023-03-05T23:57:07.074Z,47.40
